Time;durP1;ratioP1;P1;durP2;ratioP2;P2;SDS_P1;SDS_P2;PMS_P1;PMS_P2;Temp;Humidity;BMP_temperature;BMP_pressure;BME280_temperature;BME280_humidity;BME280_pressure;Samples;Min_cycle;Max_cycle;Signal;HPM_P1;HPM_P2
2022/01/10 00:00:57;;;;;;;4.53;1.42;;;;;;;6.52;67.95;92361.72;5025508;28;20022;-74
2022/01/10 00:03:24;;;;;;;4.32;1.40;;;;;;;6.52;67.72;92359.09;5025353;28;20129;-75
2022/01/10 00:05:50;;;;;;;2.13;1.45;;;;;;;6.53;67.92;92362.50;5040547;28;20190;-75
2022/01/10 00:08:15;;;;;;;2.05;1.10;;;;;;;6.53;67.77;92365.16;5025120;28;20022;-75
2022/01/10 00:10:42;;;;;;;2.42;1.33;;;;;;;6.54;68.07;92364.81;5025159;28;20021;-75
2022/01/10 00:13:08;;;;;;;2.08;1.42;;;;;;;6.57;67.81;92368.69;5025077;28;20049;-75
2022/01/10 00:15:33;;;;;;;2.83;1.27;;;;;;;6.59;67.71;92366.50;5024910;28;20018;-75
2022/01/10 00:17:59;;;;;;;2.65;1.17;;;;;;;6.55;68.02;92362.94;5023764;28;20029;-75
2022/01/10 00:20:25;;;;;;;3.25;1.30;;;;;;;6.58;67.85;92357.78;5025071;28;20014;-75
2022/01/10 00:22:51;;;;;;;2.97;1.40;;;;;;;6.60;67.92;92363.53;5025020;28;20220;-75
2022/01/10 00:25:21;;;;;;;2.38;1.33;;;;;;;6.59;68.04;92364.66;5024041;28;20021;-75
2022/01/10 00:27:48;;;;;;;3.38;1.30;;;;;;;6.62;67.99;92361.34;5024825;28;20022;-75
2022/01/10 00:30:14;;;;;;;3.47;1.88;;;;;;;6.57;68.05;92358.91;5024797;28;20060;-75
2022/01/10 00:32:41;;;;;;;3.08;1.45;;;;;;;6.59;68.39;92362.00;5024893;28;20022;-75
2022/01/10 00:35:08;;;;;;;3.38;1.67;;;;;;;6.57;68.22;92358.91;5024814;28;20028;-75
2022/01/10 00:37:34;;;;;;;4.88;1.27;;;;;;;6.60;68.41;92363.53;5024548;28;20220;-75
2022/01/10 00:40:02;;;;;;;2.38;1.20;;;;;;;6.59;68.28;92366.50;5024425;28;20105;-75
2022/01/10 00:42:28;;;;;;;1.85;0.95;;;;;;;6.58;68.22;92363.09;5024412;28;20038;-75
2022/01/10 00:44:55;;;;;;;2.20;1.23;;;;;;;6.60;68.20;92363.53;5024519;28;20244;-75
2022/01/10 00:47:20;;;;;;;1.67;1.05;;;;;;;6.60;68.26;92360.88;5024641;28;20071;-76
2022/01/10 00:49:46;;;;;;;3.25;1.25;;;;;;;6.58;68.31;92357.78;5024451;28;20025;-76
2022/01/10 00:52:13;;;;;;;2.45;1.40;;;;;;;6.59;68.47;92351.41;5024260;28;20029;-76
2022/01/10 00:54:39;;;;;;;3.25;1.40;;;;;;;6.48;68.54;92350.25;5024662;28;20032;-76
2022/01/10 00:57:05;;;;;;;2.38;1.45;;;;;;;6.46;68.53;92351.66;5024415;28;20029;-76
2022/01/10 00:59:30;;;;;;;2.40;1.58;;;;;;;6.40;68.75;92348.44;5024314;28;20351;-76
2022/01/10 01:01:56;;;;;;;5.15;2.92;;;;;;;6.41;69.06;92352.63;5024334;28;20197;-76
2022/01/10 01:04:21;;;;;;;4.00;2.70;;;;;;;6.42;68.87;92348.88;5024241;28;20253;-76
2022/01/10 01:06:48;;;;;;;3.40;1.50;;;;;;;6.46;68.73;92349.03;5024051;28;20343;-76
2022/01/10 01:09:17;;;;;;;3.05;1.50;;;;;;;6.47;69.02;92351.31;5024185;28;20022;-76
2022/01/10 01:17:31;;;;;;;1.52;0.98;;;;;;;6.48;69.18;92336.25;5024043;28;20343;-76
2022/01/10 01:25:13;;;;;;;4.30;2.10;;;;;;;6.42;69.32;92341.72;5024038;28;20064;-76
2022/01/10 01:27:40;;;;;;;5.43;2.40;;;;;;;6.38;69.55;92332.09;5023839;28;20020;-76
2022/01/10 01:30:07;;;;;;;2.83;1.30;;;;;;;6.39;69.69;92336.28;5023900;28;20049;-76
2022/01/10 01:32:33;;;;;;;2.95;1.77;;;;;;;6.38;70.08;92332.09;5023695;28;20240;-76
2022/01/10 01:35:04;;;;;;;2.13;1.25;;;;;;;6.37;69.96;92330.53;5023607;28;20029;-76
2022/01/10 01:37:30;;;;;;;2.47;1.40;;;;;;;6.38;70.23;92332.09;5023504;28;20022;-76
2022/01/10 01:39:56;;;;;;;2.42;1.55;;;;;;;6.37;70.16;92333.19;5023581;28;20068;-76
2022/01/10 01:45:01;;;;;;;6.60;1.58;;;;;;;6.37;70.05;92323.41;5023531;28;20844;-76
2022/01/10 01:47:26;;;;;;;3.10;1.58;;;;;;;6.38;70.35;92318.88;5023522;28;20025;-76
2022/01/10 01:49:52;;;;;;;3.83;1.60;;;;;;;6.37;70.24;92309.38;5023438;28;20026;-76
2022/01/10 01:52:17;;;;;;;2.92;1.77;;;;;;;6.35;70.64;92311.56;5023403;28;20025;-76
2022/01/10 01:54:43;;;;;;;2.30;1.58;;;;;;;6.31;70.76;92322.06;5023322;28;20201;-76
2022/01/10 01:57:08;;;;;;;5.47;1.65;;;;;;;6.29;71.06;92320.81;5038560;28;20177;-76
2022/01/10 01:59:36;;;;;;;5.20;1.88;;;;;;;6.30;71.08;92317.06;5023226;28;20053;-76
2022/01/10 02:02:02;;;;;;;2.35;1.50;;;;;;;6.32;70.90;92320.16;5023369;28;20021;-76
2022/01/10 02:04:27;;;;;;;4.65;1.33;;;;;;;6.35;70.99;92314.22;5023335;28;20045;-76
2022/01/10 02:06:52;;;;;;;3.80;1.50;;;;;;;6.33;71.18;92316.41;5023160;28;20127;-77
2022/01/10 02:09:18;;;;;;;5.75;1.60;;;;;;;6.30;71.24;92315.19;5022998;28;20022;-77
2022/01/10 02:11:43;;;;;;;2.13;1.38;;;;;;;6.30;71.13;92317.06;5023019;28;20091;-77
2022/01/10 02:14:09;;;;;;;7.07;2.05;;;;;;;6.29;71.34;92316.31;5023209;28;20224;-76
2022/01/10 02:16:46;;;;;;;2.85;1.67;;;;;;;6.32;71.43;92307.72;5022931;28;20079;-77
2022/01/10 02:19:12;;;;;;;3.05;1.70;;;;;;;6.35;71.45;92315.00;5023128;28;20200;-77
2022/01/10 02:21:38;;;;;;;6.65;1.90;;;;;;;6.33;71.53;92311.13;5022939;28;20072;-76
2022/01/10 02:24:05;;;;;;;4.75;1.63;;;;;;;6.32;71.51;92318.28;5023054;28;20029;-77
2022/01/10 02:26:31;;;;;;;3.55;2.03;;;;;;;6.36;71.62;92321.84;5022949;28;20018;-76
2022/01/10 02:28:57;;;;;;;5.07;2.65;;;;;;;6.36;71.58;92307.84;5022838;28;20021;-76
2022/01/10 02:31:23;;;;;;;6.10;3.08;;;;;;;6.33;71.98;92311.13;5022772;28;20267;-76
2022/01/10 02:33:51;;;;;;;6.95;4.22;;;;;;;6.28;72.26;92314.75;5022861;28;20022;-76
2022/01/10 02:36:25;;;;;;;8.20;3.28;;;;;;;6.23;72.34;92323.66;5022522;28;20018;-76
2022/01/10 02:38:56;;;;;;;6.97;2.67;;;;;;;6.24;72.40;92319.13;5022841;28;20040;-76
2022/01/10 02:41:25;;;;;;;9.73;3.07;;;;;;;6.28;72.23;92325.31;5022705;28;20024;-77
2022/01/10 02:43:52;;;;;;;8.55;3.55;;;;;;;6.28;72.59;92335.16;5022655;28;20269;-77
2022/01/10 02:46:17;;;;;;;6.53;3.50;;;;;;;6.18;72.86;92326.47;5022814;28;20034;-76
2022/01/10 02:48:43;;;;;;;8.85;3.65;;;;;;;6.19;72.79;92320.13;5025025;28;20343;-77
2022/01/10 02:51:12;;;;;;;6.32;3.50;;;;;;;6.19;72.80;92324.63;5026697;28;20056;-75
2022/01/10 02:53:37;;;;;;;7.60;3.67;;;;;;;6.17;72.96;92316.25;5026657;28;20036;-75
2022/01/10 02:56:03;;;;;;;6.95;3.85;;;;;;;6.17;72.98;92317.00;5026370;28;20228;-75
2022/01/10 02:58:28;;;;;;;6.22;2.95;;;;;;;6.12;73.16;92322.47;5026639;28;20049;-73
2022/01/10 03:00:54;;;;;;;6.18;2.97;;;;;;;6.12;72.96;92316.44;5026360;28;20035;-73
2022/01/10 03:03:19;;;;;;;7.47;3.17;;;;;;;6.05;73.50;92327.53;5026362;28;20056;-73
2022/01/10 03:05:45;;;;;;;5.50;3.65;;;;;;;6.04;73.71;92333.91;5026511;28;20025;-73
2022/01/10 03:08:10;;;;;;;8.82;3.70;;;;;;;6.01;74.04;92324.75;5026386;28;20372;-73
2022/01/10 03:10:36;;;;;;;9.23;4.30;;;;;;;6.00;73.95;92330.34;5026207;28;20022;-74
2022/01/10 03:13:01;;;;;;;9.52;3.95;;;;;;;6.01;74.04;92323.97;5026089;28;20050;-75
2022/01/10 03:15:28;;;;;;;8.05;3.40;;;;;;;5.99;73.95;92326.16;5026103;28;20033;-74
2022/01/10 03:17:54;;;;;;;8.63;4.00;;;;;;;5.92;74.21;92325.84;5026104;28;20101;-74
2022/01/10 03:20:19;;;;;;;9.32;4.90;;;;;;;5.94;74.52;92331.59;5026180;28;20026;-74
2022/01/10 03:22:45;;;;;;;7.28;4.93;;;;;;;5.90;74.50;92320.13;5026091;28;20052;-74
2022/01/10 03:25:11;;;;;;;9.20;5.05;;;;;;;5.87;74.90;92331.34;5026118;28;20030;-74
2022/01/10 03:27:36;;;;;;;9.73;5.28;;;;;;;5.86;74.95;92327.91;5025939;28;20029;-75
2022/01/10 03:30:03;;;;;;;12.77;5.38;;;;;;;5.83;74.94;92321.41;5025922;28;20025;-74
2022/01/10 03:32:29;;;;;;;10.68;5.45;;;;;;;5.88;75.07;92333.66;5025870;28;20316;-74
2022/01/10 03:34:57;;;;;;;10.00;4.47;;;;;;;5.86;75.00;92324.50;5025841;28;20030;-75
2022/01/10 03:37:23;;;;;;;9.02;4.53;;;;;;;5.88;74.88;92328.38;5025631;28;20034;-74
2022/01/10 03:39:49;;;;;;;10.05;4.80;;;;;;;5.92;74.61;92333.78;5025858;28;20197;-74
2022/01/10 03:42:14;;;;;;;10.20;5.93;;;;;;;5.91;74.88;92326.97;5025694;28;20032;-74
2022/01/10 03:44:40;;;;;;;7.55;4.72;;;;;;;5.90;74.94;92330.69;5025915;28;20259;-75
2022/01/10 03:47:05;;;;;;;8.48;4.45;;;;;;;5.89;74.75;92337.84;5025572;28;20328;-74
2022/01/10 03:49:31;;;;;;;10.95;5.70;;;;;;;5.93;74.85;92340.66;5025472;28;20033;-74
2022/01/10 03:51:57;;;;;;;9.77;6.10;;;;;;;5.89;74.96;92335.22;5025548;28;20180;-74
2022/01/10 03:54:22;;;;;;;9.98;5.85;;;;;;;5.89;74.97;92342.38;5025676;28;20030;-73
2022/01/10 03:56:48;;;;;;;10.35;5.95;;;;;;;5.90;74.92;92343.91;5025330;28;20026;-74
2022/01/10 03:59:14;;;;;;;16.95;6.35;;;;;;;5.92;74.97;92344.38;5024393;28;20034;-74
2022/01/10 04:01:40;;;;;;;12.00;6.03;;;;;;;5.93;74.81;92348.56;5024030;28;20029;-74
2022/01/10 04:04:08;;;;;;;10.02;5.65;;;;;;;5.92;74.93;92342.53;5025294;28;20331;-74
2022/01/10 04:06:34;;;;;;;10.98;5.72;;;;;;;5.91;74.91;92348.13;5024036;28;20049;-74
2022/01/10 04:09:00;;;;;;;11.95;5.75;;;;;;;5.88;74.54;92354.03;5024969;28;20022;-75
2022/01/10 04:11:25;;;;;;;10.05;5.03;;;;;;;5.89;74.75;92350.31;5025005;28;20028;-74
2022/01/10 04:13:51;;;;;;;11.38;5.38;;;;;;;5.89;74.52;92350.31;5025120;28;20025;-74
2022/01/10 04:16:16;;;;;;;10.80;5.57;;;;;;;5.87;74.83;92357.78;5024913;28;20026;-73
2022/01/10 04:18:42;;;;;;;11.85;5.30;;;;;;;5.86;74.73;92364.16;5025223;28;20034;-75
2022/01/10 04:21:07;;;;;;;9.82;4.60;;;;;;;5.90;74.27;92357.91;5024922;28;20379;-75
2022/01/10 04:23:33;;;;;;;12.98;4.93;;;;;;;5.88;74.41;92372.53;5024760;28;20039;-75
2022/01/10 04:25:58;;;;;;;8.73;4.90;;;;;;;5.85;74.30;92365.28;5024867;28;20018;-75
2022/01/10 04:28:24;;;;;;;8.70;4.18;;;;;;;5.86;74.23;92367.56;5024765;28;20028;-75
2022/01/10 04:30:49;;;;;;;6.80;4.10;;;;;;;5.83;74.30;92376.16;5024757;28;20032;-76
2022/01/10 04:33:18;;;;;;;12.25;4.20;;;;;;;5.83;74.28;92376.94;5024829;28;20224;-76
2022/01/10 04:35:44;;;;;;;11.05;4.45;;;;;;;5.85;74.35;92381.91;5024885;28;20064;-75
2022/01/10 04:38:10;;;;;;;7.38;3.85;;;;;;;5.89;74.29;92382.81;5024706;28;20320;-74
2022/01/10 04:40:36;;;;;;;7.40;3.95;;;;;;;5.87;74.21;92387.66;5024646;28;20037;-75
2022/01/10 04:43:01;;;;;;;9.50;5.05;;;;;;;5.83;74.02;92390.16;5024608;28;20025;-75
2022/01/10 04:45:26;;;;;;;10.45;3.97;;;;;;;5.83;73.88;92379.56;5024325;28;20201;-74
2022/01/10 04:47:52;;;;;;;8.27;4.13;;;;;;;5.82;73.95;92377.22;5024355;28;20371;-74
2022/01/10 04:52:46;;;;;;;9.45;4.88;;;;;;;5.69;74.01;92394.88;5024427;28;20073;-74
2022/01/10 04:55:12;;;;;;;6.60;4.32;;;;;;;5.68;74.21;92395.19;5024347;28;20323;-75
2022/01/10 04:57:38;;;;;;;11.13;5.82;;;;;;;5.63;74.35;92393.50;5024120;28;20335;-75
2022/01/10 05:00:05;;;;;;;8.40;5.65;;;;;;;5.61;74.45;92403.63;5024102;28;20022;-75
2022/01/10 05:02:31;;;;;;;8.88;4.07;;;;;;;5.64;74.46;92403.00;5024230;28;20021;-75
2022/01/10 05:04:56;;;;;;;8.98;5.15;;;;;;;5.62;74.50;92407.81;5024041;28;20060;-75
2022/01/10 05:07:22;;;;;;;10.73;5.10;;;;;;;5.55;74.67;92410.94;5024126;28;20080;-75
2022/01/10 05:09:47;;;;;;;9.38;4.70;;;;;;;5.50;74.90;92408.47;5024063;28;20089;-75
2022/01/10 05:12:13;;;;;;;13.60;5.50;;;;;;;5.53;74.93;92412.34;5023760;28;20235;-75
2022/01/10 05:14:39;;;;;;;10.98;5.85;;;;;;;5.53;74.95;92415.00;5023977;28;20026;-75
2022/01/10 05:17:05;;;;;;;9.02;4.80;;;;;;;5.49;75.12;92411.44;5023773;28;20052;-75
2022/01/10 05:19:30;;;;;;;8.57;4.40;;;;;;;5.54;75.12;92412.06;5023920;28;20022;-75
2022/01/10 05:21:56;;;;;;;10.75;5.72;;;;;;;5.56;74.68;92412.50;5023794;28;20029;-75
2022/01/10 05:24:22;;;;;;;12.80;6.32;;;;;;;5.56;74.90;92422.31;5023897;28;20026;-75
2022/01/10 05:26:48;;;;;;;11.13;5.80;;;;;;;5.54;75.26;92417.34;5023829;28;20061;-75
2022/01/10 05:29:14;;;;;;;11.68;6.65;;;;;;;5.56;75.12;92427.59;5023860;28;20026;-75
2022/01/10 05:31:39;;;;;;;16.05;8.27;;;;;;;5.57;75.11;92429.91;5023720;28;20097;-75
2022/01/10 05:34:05;;;;;;;14.13;6.72;;;;;;;5.59;75.21;92425.06;5023750;28;20049;-75
2022/01/10 05:36:30;;;;;;;9.98;5.18;;;;;;;5.57;74.79;92431.78;5023661;28;20095;-75
2022/01/10 05:38:56;;;;;;;11.45;4.78;;;;;;;5.53;74.99;92436.91;5023554;28;20366;-75
2022/01/10 05:41:22;;;;;;;9.30;5.45;;;;;;;5.56;75.08;92438.94;5023484;28;20022;-75
2022/01/10 05:43:48;;;;;;;11.45;6.10;;;;;;;5.59;74.92;92437.53;5023734;28;20071;-75
2022/01/10 05:46:16;;;;;;;14.50;5.90;;;;;;;5.61;74.33;92436.09;5023540;28;20037;-75
2022/01/10 05:48:46;;;;;;;11.00;5.70;;;;;;;5.61;74.54;92443.28;5023610;28;20212;-75
2022/01/10 05:51:16;;;;;;;12.48;5.40;;;;;;;5.60;74.40;92434.56;5023578;28;20284;-75
2022/01/10 05:53:42;;;;;;;15.05;6.90;;;;;;;5.58;74.84;92442.03;5023323;28;20026;-75
2022/01/10 05:56:07;;;;;;;9.48;5.70;;;;;;;5.53;74.81;92444.06;5038389;28;20072;-75
2022/01/10 05:58:33;;;;;;;12.70;6.45;;;;;;;5.54;74.53;92440.34;5023215;28;20030;-74
2022/01/10 06:00:58;;;;;;;10.50;5.53;;;;;;;5.56;74.73;92444.22;5023286;28;20065;-75
2022/01/10 06:03:23;;;;;;;11.80;6.07;;;;;;;5.53;74.88;92454.63;5023119;28;20085;-75
2022/01/10 06:05:49;;;;;;;13.18;6.65;;;;;;;5.51;74.80;92454.94;5023254;28;20123;-75
2022/01/10 06:08:15;;;;;;;14.10;7.47;;;;;;;5.52;75.00;92453.09;5023276;28;20128;-75
2022/01/10 06:10:40;;;;;;;13.77;7.88;;;;;;;5.46;74.94;92454.38;5021829;28;20032;-75
2022/01/10 06:13:06;;;;;;;13.73;6.82;;;;;;;5.46;75.12;92454.38;5022837;28;20125;-74
2022/01/10 06:15:32;;;;;;;16.48;8.07;;;;;;;5.43;75.42;92445.97;5022960;28;20028;-74
2022/01/10 06:17:58;;;;;;;13.02;6.88;;;;;;;5.46;75.55;92455.13;5022896;28;20244;-75
2022/01/10 06:20:24;;;;;;;16.77;8.38;;;;;;;5.48;75.66;92460.13;5022812;28;20096;-75
2022/01/10 06:22:49;;;;;;;15.73;8.77;;;;;;;5.48;75.38;92455.59;5037375;28;20048;-75
2022/01/10 06:25:19;;;;;;;15.73;8.55;;;;;;;5.46;75.17;92457.78;5021745;28;20030;-75
2022/01/10 06:27:45;;;;;;;15.35;7.90;;;;;;;5.51;75.26;92462.88;5022897;28;20060;-75
2022/01/10 06:30:11;;;;;;;12.45;7.57;;;;;;;5.55;75.34;92463.03;5022802;28;20025;-75
2022/01/10 06:32:36;;;;;;;20.20;10.40;;;;;;;5.52;75.35;92463.69;5022756;28;20101;-76
2022/01/10 06:35:03;;;;;;;19.35;8.25;;;;;;;5.50;75.65;92468.50;5022554;28;20042;-74
2022/01/10 06:37:28;;;;;;;10.80;6.30;;;;;;;5.54;75.54;92467.56;5022415;28;20227;-74
2022/01/10 06:39:54;;;;;;;15.98;6.68;;;;;;;5.58;75.51;92473.75;5022737;28;20026;-74
2022/01/10 06:42:19;;;;;;;15.35;7.30;;;;;;;5.56;75.37;92475.94;5022667;28;20197;-74
2022/01/10 06:44:45;;;;;;;14.43;7.13;;;;;;;5.58;75.28;92471.13;5022467;28;20037;-76
2022/01/10 06:47:11;;;;;;;20.17;8.32;;;;;;;5.60;75.29;92478.72;5022596;28;20045;-77
2022/01/10 06:49:36;;;;;;;13.20;7.18;;;;;;;5.60;75.17;92476.09;5022520;28;20263;-76
2022/01/10 06:52:02;;;;;;;17.80;7.60;;;;;;;5.66;75.26;92484.59;5022438;28;20053;-75
2022/01/10 06:54:27;;;;;;;15.63;6.50;;;;;;;5.59;75.19;92477.16;5022587;28;20068;-75
2022/01/10 06:56:53;;;;;;;13.80;7.13;;;;;;;5.60;75.01;92481.38;5022381;28;20034;-75
2022/01/10 06:59:19;;;;;;;13.20;6.22;;;;;;;5.52;74.80;92490.88;5022524;28;20049;-75
2022/01/10 07:01:45;;;;;;;13.32;7.10;;;;;;;5.51;74.92;92484.03;5022660;28;20328;-75
2022/01/10 07:04:11;;;;;;;14.18;7.97;;;;;;;5.49;74.93;92488.84;5022311;28;20029;-75
2022/01/10 07:06:37;;;;;;;17.55;8.70;;;;;;;5.51;74.89;92499.88;5022432;28;20067;-78
2022/01/10 07:09:03;;;;;;;14.90;7.25;;;;;;;5.52;74.92;92500.69;5022293;28;20137;-76
2022/01/10 07:11:28;;;;;;;13.45;6.53;;;;;;;5.53;74.69;92502.97;5021846;28;20268;-74
2022/01/10 07:13:54;;;;;;;15.13;7.30;;;;;;;5.49;74.52;92496.78;5022097;28;20034;-74
2022/01/10 07:16:20;;;;;;;15.23;6.82;;;;;;;5.49;74.73;92506.56;5022372;28;20026;-74
2022/01/10 07:18:45;;;;;;;16.25;6.70;;;;;;;5.49;74.98;92501.28;5022502;28;20041;-74
2022/01/10 07:21:11;;;;;;;19.50;8.38;;;;;;;5.48;74.98;92510.31;5022083;28;20025;-74
2022/01/10 07:23:36;;;;;;;14.65;6.40;;;;;;;5.42;75.17;92501.78;5022259;28;20089;-74
2022/01/10 07:26:02;;;;;;;14.02;7.38;;;;;;;5.46;75.38;92507.22;5022009;28;20144;-74
2022/01/10 07:28:28;;;;;;;14.40;6.47;;;;;;;5.48;75.40;92512.97;5021913;28;20025;-74
2022/01/10 07:30:54;;;;;;;14.10;7.70;;;;;;;5.53;75.20;92512.78;5022171;28;20033;-74
2022/01/10 07:33:19;;;;;;;15.20;6.65;;;;;;;5.58;75.42;92512.63;5022384;28;20304;-74
2022/01/10 07:35:44;;;;;;;13.25;6.50;;;;;;;5.55;75.21;92521.19;5025928;28;20022;-76
2022/01/10 07:38:10;;;;;;;11.93;6.40;;;;;;;5.56;75.67;92514.81;5026005;28;20220;-76
2022/01/10 07:40:35;;;;;;;15.52;7.03;;;;;;;5.60;76.15;92515.75;5024841;28;20336;-76
2022/01/10 07:43:01;;;;;;;14.25;7.45;;;;;;;5.68;76.13;92527.38;5025885;28;20048;-76
2022/01/10 07:45:27;;;;;;;16.30;7.35;;;;;;;5.77;76.00;92522.84;5025951;28;20025;-76
2022/01/10 07:47:53;;;;;;;21.98;7.53;;;;;;;5.83;75.84;92532.94;5040885;28;20017;-76
2022/01/10 07:50:18;;;;;;;17.13;7.53;;;;;;;5.88;75.33;92525.91;5025726;28;20025;-72
2022/01/10 07:52:44;;;;;;;10.70;5.82;;;;;;;5.92;75.11;92529.47;5025471;28;20383;-77
2022/01/10 07:55:10;;;;;;;21.95;7.40;;;;;;;5.96;74.75;92527.78;5025275;28;20100;-77
2022/01/10 07:57:35;;;;;;;12.10;6.97;;;;;;;5.99;74.25;92525.28;5025460;28;20041;-77
2022/01/10 08:00:01;;;;;;;14.60;7.22;;;;;;;6.02;73.94;92529.16;5025466;28;20173;-77
2022/01/10 08:02:26;;;;;;;20.45;7.32;;;;;;;6.08;73.78;92532.44;5025346;28;20085;-77
2022/01/10 08:04:52;;;;;;;17.95;7.63;;;;;;;6.08;73.28;92533.19;5025107;28;20064;-77
2022/01/10 08:07:18;;;;;;;15.93;7.85;;;;;;;6.10;73.04;92535.53;5025047;28;20017;-78
2022/01/10 08:09:44;;;;;;;15.70;8.25;;;;;;;6.07;72.90;92529.00;5025301;28;20036;-77
2022/01/10 08:12:10;;;;;;;18.42;9.25;;;;;;;6.12;72.60;92539.41;5024967;28;20347;-77
2022/01/10 08:14:35;;;;;;;14.63;8.00;;;;;;;6.07;72.82;92530.88;5025074;28;20034;-77
2022/01/10 08:17:01;;;;;;;19.58;8.00;;;;;;;6.03;72.92;92528.09;5025077;28;20030;-77
2022/01/10 08:19:27;;;;;;;21.52;8.70;;;;;;;6.06;73.05;92524.81;5024937;28;20093;-77
2022/01/10 08:21:55;;;;;;;18.65;8.85;;;;;;;6.06;73.14;92527.44;5025098;28;20328;-77
2022/01/10 08:24:22;;;;;;;21.30;9.98;;;;;;;6.08;73.21;92535.84;5024736;28;20341;-76
2022/01/10 08:26:48;;;;;;;17.92;9.88;;;;;;;6.11;73.08;92537.88;5025130;28;20197;-77
2022/01/10 08:29:13;;;;;;;19.75;9.88;;;;;;;6.14;72.91;92536.44;5024933;28;20387;-77
2022/01/10 08:31:39;;;;;;;18.17;8.90;;;;;;;6.18;72.95;92538.13;5024879;28;20028;-76
2022/01/10 08:34:05;;;;;;;17.23;9.25;;;;;;;6.17;73.26;92531.31;5024758;28;20435;-75
2022/01/10 08:36:31;;;;;;;17.48;8.52;;;;;;;6.18;73.26;92538.13;5024504;28;20178;-76
2022/01/10 08:38:57;;;;;;;16.77;8.65;;;;;;;6.19;73.35;92539.69;5024701;28;20036;-76
2022/01/10 08:41:22;;;;;;;19.98;9.52;;;;;;;6.21;73.35;92536.75;5024675;28;20021;-75
2022/01/10 08:43:48;;;;;;;15.35;8.70;;;;;;;6.23;73.31;92537.97;5024636;28;20028;-76
2022/01/10 08:46:14;;;;;;;22.50;9.07;;;;;;;6.21;73.12;92542.81;5023708;28;20045;-76
2022/01/10 08:48:40;;;;;;;17.63;8.82;;;;;;;6.20;73.11;92546.53;5024543;28;20021;-76
2022/01/10 08:51:06;;;;;;;18.80;8.88;;;;;;;6.15;73.38;92549.38;5024383;28;20030;-76
2022/01/10 08:53:32;;;;;;;18.92;8.45;;;;;;;6.17;73.51;92560.41;5024232;28;20026;-76
2022/01/10 08:55:57;;;;;;;17.92;9.32;;;;;;;6.16;73.51;92550.13;5024346;28;20037;-76
2022/01/10 08:58:24;;;;;;;17.80;8.05;;;;;;;6.16;73.29;92552.78;5024330;28;20331;-77
2022/01/10 09:00:50;;;;;;;17.15;8.73;;;;;;;6.17;73.42;92555.13;5024257;28;20049;-76
2022/01/10 09:03:16;;;;;;;20.02;10.68;;;;;;;6.18;73.02;92555.88;5024192;28;20030;-76
2022/01/10 09:05:41;;;;;;;18.65;8.63;;;;;;;6.13;73.22;92561.38;5024149;28;20021;-76
2022/01/10 09:08:07;;;;;;;15.57;8.57;;;;;;;6.13;73.37;92559.50;5023926;28;20028;-76
2022/01/10 09:10:32;;;;;;;16.35;8.00;;;;;;;6.17;73.50;92560.41;5023922;28;20028;-76
2022/01/10 09:12:58;;;;;;;15.60;8.25;;;;;;;6.17;73.57;92564.94;5023811;28;20067;-77
2022/01/10 09:15:24;;;;;;;21.20;8.88;;;;;;;6.09;73.17;92563.09;5023796;28;20044;-76
2022/01/10 09:17:49;;;;;;;18.00;11.30;;;;;;;5.95;73.22;92558.75;5023859;28;20032;-75
2022/01/10 09:20:15;;;;;;;22.92;11.48;;;;;;;5.92;73.13;92551.44;5024037;28;20109;-75
2022/01/10 09:22:41;;;;;;;20.60;11.55;;;;;;;5.91;72.83;92546.47;5024069;28;20304;-76
2022/01/10 09:25:07;;;;;;;21.02;10.75;;;;;;;5.86;72.45;92562.47;5023833;28;20071;-75
2022/01/10 09:27:32;;;;;;;16.90;9.55;;;;;;;5.81;72.31;92553.63;5023646;28;20018;-76
2022/01/10 09:29:58;;;;;;;19.35;9.50;;;;;;;5.83;71.93;92564.66;5023794;28;20029;-76
2022/01/10 09:32:23;;;;;;;17.60;10.43;;;;;;;5.88;71.83;92560.28;5023779;28;20239;-76
2022/01/10 09:34:49;;;;;;;23.50;11.45;;;;;;;5.82;71.83;92562.31;5023678;28;20132;-76
2022/01/10 09:37:15;;;;;;;19.13;10.80;;;;;;;5.81;72.03;92556.25;5023605;28;20140;-76
2022/01/10 09:39:40;;;;;;;29.17;13.48;;;;;;;5.85;71.97;92563.59;5023629;28;20025;-76
2022/01/10 09:42:06;;;;;;;29.80;12.50;;;;;;;5.80;71.83;92564.50;5023266;28;20021;-75
2022/01/10 09:44:31;;;;;;;22.70;12.13;;;;;;;5.68;72.22;92556.44;5023312;28;20021;-76
2022/01/10 09:46:57;;;;;;;24.38;11.88;;;;;;;5.68;72.47;92559.09;5022231;28;20840;-76
2022/01/10 09:49:22;;;;;;;24.58;11.63;;;;;;;5.70;72.47;92557.72;5023583;28;20026;-76
2022/01/10 09:51:48;;;;;;;22.02;10.98;;;;;;;5.74;72.81;92555.97;5023425;28;20328;-76
2022/01/10 09:54:14;;;;;;;22.20;11.07;;;;;;;5.79;72.66;92562.97;5023352;28;20036;-76
2022/01/10 09:56:40;;;;;;;20.23;10.05;;;;;;;5.78;72.73;92564.03;5023140;28;20045;-76
2022/01/10 09:59:06;;;;;;;19.98;10.40;;;;;;;5.79;72.73;92569.03;5023194;28;20074;-75
2022/01/10 10:01:34;;;;;;;17.95;10.57;;;;;;;5.73;72.74;92565.00;5023318;28;20316;-76
2022/01/10 10:04:00;;;;;;;25.77;11.60;;;;;;;5.72;72.96;92568.75;5023005;28;20087;-76
2022/01/10 10:06:28;;;;;;;19.80;10.40;;;;;;;5.71;73.04;92561.13;5023029;28;20216;-76
2022/01/10 10:08:59;;;;;;;21.77;11.50;;;;;;;5.70;73.59;92565.63;5022981;28;20383;-75
2022/01/10 10:11:45;;;;;;;23.90;10.80;;;;;;;5.69;73.87;92566.72;5022859;28;20098;-77
2022/01/10 10:14:13;;;;;;;34.13;16.05;;;;;;;5.73;73.86;92562.34;5023012;28;20025;-76
2022/01/10 10:16:47;;;;;;;27.85;10.60;;;;;;;5.75;73.33;92562.81;5022863;28;20324;-77
2022/01/10 10:19:14;;;;;;;29.05;10.88;;;;;;;5.69;73.51;92560.66;5022917;28;20028;-77
2022/01/10 10:21:40;;;;;;;21.88;11.38;;;;;;;5.62;74.01;92561.13;5022830;28;20370;-77
2022/01/10 10:24:05;;;;;;;23.27;12.00;;;;;;;5.57;74.10;92562.06;5022814;28;20018;-75
2022/01/10 10:26:31;;;;;;;25.35;14.02;;;;;;;5.59;74.26;92559.88;5038119;28;20013;-77
2022/01/10 10:28:58;;;;;;;38.35;13.40;;;;;;;5.60;74.32;92563.31;5022778;28;20021;-76
2022/01/10 10:31:41;;;;;;;30.42;13.43;;;;;;;5.52;73.93;92564.09;5022411;28;20018;-76
2022/01/10 10:34:07;;;;;;;32.17;14.10;;;;;;;5.47;74.14;92561.59;5022875;28;20025;-76
2022/01/10 10:36:35;;;;;;;35.42;11.50;;;;;;;5.43;74.23;92559.59;5022625;28;20021;-76
2022/01/10 10:39:06;;;;;;;29.83;9.68;;;;;;;5.41;74.47;92560.97;5021434;28;20024;-75
2022/01/10 10:41:33;;;;;;;27.23;11.55;;;;;;;5.38;74.45;92554.47;5022797;28;20228;-75
2022/01/10 10:44:00;;;;;;;80.88;14.10;;;;;;;5.35;74.17;92560.38;5022344;28;20033;-75
2022/01/10 10:46:27;;;;;;;27.55;11.95;;;;;;;5.31;74.60;92558.66;5022600;28;20022;-75
2022/01/10 10:49:03;;;;;;;51.58;13.65;;;;;;;5.28;75.09;92554.00;5022504;28;20101;-75
2022/01/10 10:51:35;;;;;;;26.23;12.80;;;;;;;5.27;75.28;92558.53;5022303;28;20025;-75
2022/01/10 10:54:03;;;;;;;25.55;11.98;;;;;;;5.26;75.47;92566.75;5037587;28;20105;-75
2022/01/10 10:56:34;;;;;;;26.88;13.48;;;;;;;5.31;75.78;92563.94;5022166;28;20036;-75
2022/01/10 10:59:01;;;;;;;28.42;14.05;;;;;;;5.39;75.65;92560.53;5022335;28;20092;-75
2022/01/10 11:01:26;;;;;;;24.73;11.80;;;;;;;5.43;75.29;92566.72;5022157;28;20022;-75
2022/01/10 11:03:52;;;;;;;25.73;12.88;;;;;;;5.40;75.39;92570.78;5022186;28;20022;-75
2022/01/10 11:06:18;;;;;;;26.58;14.73;;;;;;;5.36;75.46;92567.22;5022452;28;20029;-75
2022/01/10 11:08:44;;;;;;;37.40;16.15;;;;;;;5.31;75.77;92566.59;5022661;28;20228;-76
2022/01/10 11:11:14;;;;;;;28.35;14.40;;;;;;;5.30;76.22;92573.75;5026073;28;20028;-76
2022/01/10 11:13:41;;;;;;;29.88;13.60;;;;;;;5.34;76.04;92579.97;5025863;28;20050;-75
2022/01/10 11:16:08;;;;;;;35.33;13.15;;;;;;;5.39;75.90;92574.53;5025848;28;20072;-73
2022/01/10 11:18:34;;;;;;;31.52;12.07;;;;;;;5.45;75.63;92575.13;5025985;28;20022;-75
2022/01/10 11:20:59;;;;;;;24.63;10.68;;;;;;;5.43;75.21;92577.31;5025890;28;20089;-75
2022/01/10 11:23:26;;;;;;;21.08;10.98;;;;;;;5.40;75.16;92573.44;5025667;28;20029;-76
2022/01/10 11:25:52;;;;;;;24.42;12.40;;;;;;;5.38;75.21;92582.75;5025753;28;20022;-75
2022/01/10 11:28:26;;;;;;;30.20;13.05;;;;;;;5.40;75.26;92578.72;5025782;28;20328;-76
2022/01/10 11:31:03;;;;;;;24.90;13.52;;;;;;;5.40;75.10;92586.63;5025793;28;20072;-76
2022/01/10 11:33:35;;;;;;;22.27;11.73;;;;;;;5.40;74.89;92584.00;5024422;28;20025;-77
2022/01/10 11:36:07;;;;;;;14.57;8.87;;;;;;;5.32;74.64;92581.38;5025553;28;20029;-77
2022/01/10 11:38:48;;;;;;;20.45;8.68;;;;;;;5.37;74.51;92582.00;5025733;28;20283;-76
2022/01/10 11:41:17;;;;;;;23.73;7.80;;;;;;;5.42;74.54;92589.75;5025827;28;20017;-75
2022/01/10 11:43:45;;;;;;;16.75;7.57;;;;;;;5.46;74.19;92592.56;5024449;28;20029;-76
2022/01/10 11:46:19;;;;;;;13.30;8.05;;;;;;;5.50;73.52;92593.47;5040776;28;20037;-76